sensor_id;sensor_type;location;lat;lon;timestamp;temperature;humidity
42743;DHT22;28397;44.552;-0.848;2023-12-28T00:02:06;8.50;99.90
42743;DHT22;28397;44.552;-0.848;2023-12-28T00:04:32;8.60;99.90
42743;DHT22;28397;44.552;-0.848;2023-12-28T00:07:01;8.70;99.90
42743;DHT22;28397;44.552;-0.848;2023-12-28T00:09:27;8.80;99.90
42743;DHT22;28397;44.552;-0.848;2023-12-28T00:11:53;8.90;99.90
42743;DHT22;28397;44.552;-0.848;2023-12-28T00:14:18;8.70;99.90
42743;DHT22;28397;44.552;-0.848;2023-12-28T00:16:44;8.60;99.90
42743;DHT22;28397;44.552;-0.848;2023-12-28T00:19:10;8.40;99.90
42743;DHT22;28397;44.552;-0.848;2023-12-28T00:21:36;8.40;99.90
42743;DHT22;28397;44.552;-0.848;2023-12-28T00:24:01;8.30;99.90
42743;DHT22;28397;44.552;-0.848;2023-12-28T00:26:27;8.30;99.90
42743;DHT22;28397;44.552;-0.848;2023-12-28T00:28:53;8.20;99.90
42743;DHT22;28397;44.552;-0.848;2023-12-28T00:31:19;8.20;99.90
42743;DHT22;28397;44.552;-0.848;2023-12-28T00:33:44;8.20;99.90
42743;DHT22;28397;44.552;-0.848;2023-12-28T00:36:10;8.20;99.90
42743;DHT22;28397;44.552;-0.848;2023-12-28T00:38:36;8.20;99.90
42743;DHT22;28397;44.552;-0.848;2023-12-28T00:41:01;8.20;99.90
42743;DHT22;28397;44.552;-0.848;2023-12-28T00:43:27;8.20;99.90
42743;DHT22;28397;44.552;-0.848;2023-12-28T00:45:53;8.20;99.90
42743;DHT22;28397;44.552;-0.848;2023-12-28T00:48:18;8.20;99.90
42743;DHT22;28397;44.552;-0.848;2023-12-28T00:50:44;8.20;99.90
42743;DHT22;28397;44.552;-0.848;2023-12-28T00:53:09;8.20;99.90
42743;DHT22;28397;44.552;-0.848;2023-12-28T00:55:35;8.20;99.90
42743;DHT22;28397;44.552;-0.848;2023-12-28T00:58:01;8.20;99.90
42743;DHT22;28397;44.552;-0.848;2023-12-28T01:00:26;8.20;99.90
42743;DHT22;28397;44.552;-0.848;2023-12-28T01:02:52;8.20;99.90
42743;DHT22;28397;44.552;-0.848;2023-12-28T01:05:18;8.30;99.90
42743;DHT22;28397;44.552;-0.848;2023-12-28T01:07:46;8.30;99.90
42743;DHT22;28397;44.552;-0.848;2023-12-28T01:10:12;8.30;99.90
42743;DHT22;28397;44.552;-0.848;2023-12-28T01:12:37;8.30;99.90
42743;DHT22;28397;44.552;-0.848;2023-12-28T01:15:03;8.30;99.90
42743;DHT22;28397;44.552;-0.848;2023-12-28T01:17:29;8.30;99.90
42743;DHT22;28397;44.552;-0.848;2023-12-28T01:19:54;8.30;99.90
42743;DHT22;28397;44.552;-0.848;2023-12-28T01:22:20;8.30;99.90
42743;DHT22;28397;44.552;-0.848;2023-12-28T01:24:46;8.30;99.90
42743;DHT22;28397;44.552;-0.848;2023-12-28T01:27:14;8.30;99.90
42743;DHT22;28397;44.552;-0.848;2023-12-28T01:29:40;8.30;99.90
42743;DHT22;28397;44.552;-0.848;2023-12-28T01:32:06;8.30;99.90
42743;DHT22;28397;44.552;-0.848;2023-12-28T01:34:31;8.30;99.90
42743;DHT22;28397;44.552;-0.848;2023-12-28T01:36:57;8.30;99.90
42743;DHT22;28397;44.552;-0.848;2023-12-28T01:39:23;8.30;99.90
42743;DHT22;28397;44.552;-0.848;2023-12-28T01:41:48;8.30;99.90
42743;DHT22;28397;44.552;-0.848;2023-12-28T01:44:14;8.20;99.90
42743;DHT22;28397;44.552;-0.848;2023-12-28T01:46:40;8.20;99.90
42743;DHT22;28397;44.552;-0.848;2023-12-28T01:49:07;8.30;99.90
42743;DHT22;28397;44.552;-0.848;2023-12-28T01:51:33;8.70;99.90
42743;DHT22;28397;44.552;-0.848;2023-12-28T01:53:59;8.80;99.90
42743;DHT22;28397;44.552;-0.848;2023-12-28T01:56:25;9.00;99.90
42743;DHT22;28397;44.552;-0.848;2023-12-28T01:58:51;9.10;99.90
42743;DHT22;28397;44.552;-0.848;2023-12-28T02:01:18;9.10;99.90
42743;DHT22;28397;44.552;-0.848;2023-12-28T02:03:45;9.10;99.90
42743;DHT22;28397;44.552;-0.848;2023-12-28T02:06:11;9.10;99.90
42743;DHT22;28397;44.552;-0.848;2023-12-28T02:08:37;9.10;99.90
42743;DHT22;28397;44.552;-0.848;2023-12-28T02:11:03;8.90;99.90
42743;DHT22;28397;44.552;-0.848;2023-12-28T02:13:29;8.80;99.90
42743;DHT22;28397;44.552;-0.848;2023-12-28T02:16:01;8.70;99.90
42743;DHT22;28397;44.552;-0.848;2023-12-28T02:18:35;8.60;99.90
42743;DHT22;28397;44.552;-0.848;2023-12-28T02:21:02;8.50;99.90
42743;DHT22;28397;44.552;-0.848;2023-12-28T02:23:31;8.50;99.90
42743;DHT22;28397;44.552;-0.848;2023-12-28T02:25:57;8.40;99.90
42743;DHT22;28397;44.552;-0.848;2023-12-28T02:28:23;8.40;99.90
42743;DHT22;28397;44.552;-0.848;2023-12-28T02:30:48;8.30;99.90
42743;DHT22;28397;44.552;-0.848;2023-12-28T02:36:01;8.40;99.90
42743;DHT22;28397;44.552;-0.848;2023-12-28T02:38:32;8.40;99.90
42743;DHT22;28397;44.552;-0.848;2023-12-28T02:40:58;8.30;99.90
42743;DHT22;28397;44.552;-0.848;2023-12-28T02:43:23;8.30;99.90
42743;DHT22;28397;44.552;-0.848;2023-12-28T02:45:49;8.30;99.90
42743;DHT22;28397;44.552;-0.848;2023-12-28T02:48:15;8.30;99.90
42743;DHT22;28397;44.552;-0.848;2023-12-28T02:50:40;8.30;99.90
42743;DHT22;28397;44.552;-0.848;2023-12-28T02:53:06;8.30;99.90
42743;DHT22;28397;44.552;-0.848;2023-12-28T02:55:32;8.30;99.90
42743;DHT22;28397;44.552;-0.848;2023-12-28T02:57:58;8.30;99.90
42743;DHT22;28397;44.552;-0.848;2023-12-28T03:00:27;8.30;99.90
42743;DHT22;28397;44.552;-0.848;2023-12-28T03:02:52;8.30;99.90
42743;DHT22;28397;44.552;-0.848;2023-12-28T03:05:18;8.30;99.90
42743;DHT22;28397;44.552;-0.848;2023-12-28T03:07:44;8.30;99.90
42743;DHT22;28397;44.552;-0.848;2023-12-28T03:10:11;8.30;99.90
42743;DHT22;28397;44.552;-0.848;2023-12-28T03:12:37;8.30;99.90
42743;DHT22;28397;44.552;-0.848;2023-12-28T03:15:03;8.30;99.90
42743;DHT22;28397;44.552;-0.848;2023-12-28T03:17:29;8.30;99.90
42743;DHT22;28397;44.552;-0.848;2023-12-28T03:19:56;8.30;99.90
42743;DHT22;28397;44.552;-0.848;2023-12-28T03:22:22;8.30;99.90
42743;DHT22;28397;44.552;-0.848;2023-12-28T03:24:48;8.20;99.90
42743;DHT22;28397;44.552;-0.848;2023-12-28T03:27:14;8.20;99.90
42743;DHT22;28397;44.552;-0.848;2023-12-28T03:29:41;8.20;99.90
42743;DHT22;28397;44.552;-0.848;2023-12-28T03:32:07;8.20;99.90
42743;DHT22;28397;44.552;-0.848;2023-12-28T03:34:33;8.20;99.90
42743;DHT22;28397;44.552;-0.848;2023-12-28T03:37:00;8.20;99.90
42743;DHT22;28397;44.552;-0.848;2023-12-28T03:39:25;8.20;99.90
42743;DHT22;28397;44.552;-0.848;2023-12-28T03:41:51;8.20;99.90
42743;DHT22;28397;44.552;-0.848;2023-12-28T03:44:20;8.30;99.90
42743;DHT22;28397;44.552;-0.848;2023-12-28T03:46:50;8.60;99.90
42743;DHT22;28397;44.552;-0.848;2023-12-28T03:49:19;8.70;99.90
42743;DHT22;28397;44.552;-0.848;2023-12-28T03:51:46;8.90;99.90
42743;DHT22;28397;44.552;-0.848;2023-12-28T03:54:12;8.90;99.90
42743;DHT22;28397;44.552;-0.848;2023-12-28T03:56:41;9.10;99.90
42743;DHT22;28397;44.552;-0.848;2023-12-28T03:59:08;9.00;99.90
42743;DHT22;28397;44.552;-0.848;2023-12-28T04:01:34;9.00;99.90
42743;DHT22;28397;44.552;-0.848;2023-12-28T04:04:00;9.00;99.90
42743;DHT22;28397;44.552;-0.848;2023-12-28T04:06:25;8.90;99.90
42743;DHT22;28397;44.552;-0.848;2023-12-28T04:08:51;8.80;99.90
42743;DHT22;28397;44.552;-0.848;2023-12-28T04:11:17;8.60;99.90
42743;DHT22;28397;44.552;-0.848;2023-12-28T04:13:42;8.60;99.90
42743;DHT22;28397;44.552;-0.848;2023-12-28T04:16:12;8.50;99.90
42743;DHT22;28397;44.552;-0.848;2023-12-28T04:18:38;8.50;99.90
42743;DHT22;28397;44.552;-0.848;2023-12-28T04:21:03;8.50;99.90
42743;DHT22;28397;44.552;-0.848;2023-12-28T04:23:29;8.40;99.90
42743;DHT22;28397;44.552;-0.848;2023-12-28T04:25:55;8.40;99.90
42743;DHT22;28397;44.552;-0.848;2023-12-28T04:28:20;8.40;99.90
42743;DHT22;28397;44.552;-0.848;2023-12-28T04:30:46;8.40;99.90
42743;DHT22;28397;44.552;-0.848;2023-12-28T04:33:12;8.40;99.90
42743;DHT22;28397;44.552;-0.848;2023-12-28T04:35:37;8.40;99.90
42743;DHT22;28397;44.552;-0.848;2023-12-28T04:38:03;8.50;99.90
42743;DHT22;28397;44.552;-0.848;2023-12-28T04:40:29;8.40;99.90
42743;DHT22;28397;44.552;-0.848;2023-12-28T04:42:55;8.50;99.90
42743;DHT22;28397;44.552;-0.848;2023-12-28T04:45:20;8.50;99.90
42743;DHT22;28397;44.552;-0.848;2023-12-28T04:47:47;8.40;99.90
42743;DHT22;28397;44.552;-0.848;2023-12-28T04:50:13;8.40;99.90
42743;DHT22;28397;44.552;-0.848;2023-12-28T04:52:38;8.40;99.90
42743;DHT22;28397;44.552;-0.848;2023-12-28T04:55:06;8.50;99.90
42743;DHT22;28397;44.552;-0.848;2023-12-28T04:57:32;8.50;99.90
42743;DHT22;28397;44.552;-0.848;2023-12-28T04:59:58;8.50;99.90
42743;DHT22;28397;44.552;-0.848;2023-12-28T05:02:23;8.50;99.90
42743;DHT22;28397;44.552;-0.848;2023-12-28T05:04:49;8.50;99.90
42743;DHT22;28397;44.552;-0.848;2023-12-28T05:07:14;8.50;99.90
42743;DHT22;28397;44.552;-0.848;2023-12-28T05:09:40;8.50;99.90
42743;DHT22;28397;44.552;-0.848;2023-12-28T05:12:06;8.50;99.90
42743;DHT22;28397;44.552;-0.848;2023-12-28T05:14:31;8.50;99.90
42743;DHT22;28397;44.552;-0.848;2023-12-28T05:16:57;8.50;99.90
42743;DHT22;28397;44.552;-0.848;2023-12-28T05:19:23;8.50;99.90
42743;DHT22;28397;44.552;-0.848;2023-12-28T05:21:48;8.50;99.90
42743;DHT22;28397;44.552;-0.848;2023-12-28T05:24:14;8.50;99.90
42743;DHT22;28397;44.552;-0.848;2023-12-28T05:26:39;8.50;99.90
42743;DHT22;28397;44.552;-0.848;2023-12-28T05:29:05;8.50;99.90
42743;DHT22;28397;44.552;-0.848;2023-12-28T05:31:31;8.50;99.90
42743;DHT22;28397;44.552;-0.848;2023-12-28T05:33:56;8.50;99.90
42743;DHT22;28397;44.552;-0.848;2023-12-28T05:36:26;8.50;99.90
42743;DHT22;28397;44.552;-0.848;2023-12-28T05:38:52;8.50;99.90
42743;DHT22;28397;44.552;-0.848;2023-12-28T05:41:17;8.70;99.90
42743;DHT22;28397;44.552;-0.848;2023-12-28T05:43:43;8.90;99.90
42743;DHT22;28397;44.552;-0.848;2023-12-28T05:46:08;9.10;99.90
42743;DHT22;28397;44.552;-0.848;2023-12-28T05:48:34;9.30;99.90
42743;DHT22;28397;44.552;-0.848;2023-12-28T05:51:00;9.30;99.90
42743;DHT22;28397;44.552;-0.848;2023-12-28T05:53:26;9.40;99.90
42743;DHT22;28397;44.552;-0.848;2023-12-28T05:55:53;9.50;99.90
42743;DHT22;28397;44.552;-0.848;2023-12-28T05:58:18;9.40;99.90
42743;DHT22;28397;44.552;-0.848;2023-12-28T06:00:44;9.30;99.90
42743;DHT22;28397;44.552;-0.848;2023-12-28T06:03:12;9.20;99.90
42743;DHT22;28397;44.552;-0.848;2023-12-28T06:05:37;9.10;99.90
42743;DHT22;28397;44.552;-0.848;2023-12-28T06:08:03;9.00;99.90
42743;DHT22;28397;44.552;-0.848;2023-12-28T06:10:29;8.90;99.90
42743;DHT22;28397;44.552;-0.848;2023-12-28T06:12:55;8.90;99.90
42743;DHT22;28397;44.552;-0.848;2023-12-28T06:15:21;8.90;99.90
42743;DHT22;28397;44.552;-0.848;2023-12-28T06:17:46;8.80;99.90
42743;DHT22;28397;44.552;-0.848;2023-12-28T06:20:12;8.80;99.90
42743;DHT22;28397;44.552;-0.848;2023-12-28T06:22:38;8.80;99.90
42743;DHT22;28397;44.552;-0.848;2023-12-28T06:25:04;8.80;99.90
42743;DHT22;28397;44.552;-0.848;2023-12-28T06:27:30;8.70;99.90
42743;DHT22;28397;44.552;-0.848;2023-12-28T06:29:56;8.70;99.90
42743;DHT22;28397;44.552;-0.848;2023-12-28T06:32:22;8.70;99.90
42743;DHT22;28397;44.552;-0.848;2023-12-28T06:34:48;8.70;99.90
42743;DHT22;28397;44.552;-0.848;2023-12-28T06:37:14;8.70;99.90
42743;DHT22;28397;44.552;-0.848;2023-12-28T06:39:39;8.70;99.90
42743;DHT22;28397;44.552;-0.848;2023-12-28T06:42:05;8.70;99.90
42743;DHT22;28397;44.552;-0.848;2023-12-28T06:44:31;8.70;99.90
42743;DHT22;28397;44.552;-0.848;2023-12-28T06:46:57;8.70;99.90
42743;DHT22;28397;44.552;-0.848;2023-12-28T06:49:24;8.70;99.90
42743;DHT22;28397;44.552;-0.848;2023-12-28T06:51:49;8.70;99.90
42743;DHT22;28397;44.552;-0.848;2023-12-28T06:54:15;8.70;99.90
42743;DHT22;28397;44.552;-0.848;2023-12-28T06:56:41;8.70;99.90
42743;DHT22;28397;44.552;-0.848;2023-12-28T06:59:07;8.70;99.90
42743;DHT22;28397;44.552;-0.848;2023-12-28T07:01:37;8.70;99.90
42743;DHT22;28397;44.552;-0.848;2023-12-28T07:04:03;8.70;99.90
42743;DHT22;28397;44.552;-0.848;2023-12-28T07:06:29;8.70;99.90
42743;DHT22;28397;44.552;-0.848;2023-12-28T07:08:54;8.60;99.90
42743;DHT22;28397;44.552;-0.848;2023-12-28T07:11:20;8.60;99.90
42743;DHT22;28397;44.552;-0.848;2023-12-28T07:13:46;8.60;99.90
42743;DHT22;28397;44.552;-0.848;2023-12-28T07:16:12;8.60;99.90
42743;DHT22;28397;44.552;-0.848;2023-12-28T07:18:38;8.60;99.90
42743;DHT22;28397;44.552;-0.848;2023-12-28T07:21:03;8.70;99.90
42743;DHT22;28397;44.552;-0.848;2023-12-28T07:23:29;8.70;99.90
42743;DHT22;28397;44.552;-0.848;2023-12-28T07:25:55;8.60;99.90
42743;DHT22;28397;44.552;-0.848;2023-12-28T07:28:21;8.60;99.90
42743;DHT22;28397;44.552;-0.848;2023-12-28T07:30:46;8.60;99.90
42743;DHT22;28397;44.552;-0.848;2023-12-28T07:33:12;8.60;99.90
42743;DHT22;28397;44.552;-0.848;2023-12-28T07:35:38;8.70;99.90
42743;DHT22;28397;44.552;-0.848;2023-12-28T07:38:04;8.90;99.90
42743;DHT22;28397;44.552;-0.848;2023-12-28T07:40:30;9.00;99.90
42743;DHT22;28397;44.552;-0.848;2023-12-28T07:42:56;9.20;99.90
42743;DHT22;28397;44.552;-0.848;2023-12-28T07:45:21;9.30;99.90
42743;DHT22;28397;44.552;-0.848;2023-12-28T07:47:51;9.40;99.90
42743;DHT22;28397;44.552;-0.848;2023-12-28T07:50:17;9.40;99.90
42743;DHT22;28397;44.552;-0.848;2023-12-28T07:52:43;9.50;99.90
42743;DHT22;28397;44.552;-0.848;2023-12-28T07:55:09;9.50;99.90
42743;DHT22;28397;44.552;-0.848;2023-12-28T07:57:35;9.40;99.90
42743;DHT22;28397;44.552;-0.848;2023-12-28T08:00:01;9.30;99.90
42743;DHT22;28397;44.552;-0.848;2023-12-28T08:02:27;9.20;99.90
42743;DHT22;28397;44.552;-0.848;2023-12-28T08:04:53;9.20;99.90
42743;DHT22;28397;44.552;-0.848;2023-12-28T08:07:19;9.10;99.90
42743;DHT22;28397;44.552;-0.848;2023-12-28T08:09:44;9.00;99.90
42743;DHT22;28397;44.552;-0.848;2023-12-28T08:12:10;8.90;99.90
42743;DHT22;28397;44.552;-0.848;2023-12-28T08:14:36;8.90;99.90
42743;DHT22;28397;44.552;-0.848;2023-12-28T08:17:01;8.90;99.90
42743;DHT22;28397;44.552;-0.848;2023-12-28T08:19:27;8.90;99.90
42743;DHT22;28397;44.552;-0.848;2023-12-28T08:21:53;8.90;99.90
42743;DHT22;28397;44.552;-0.848;2023-12-28T08:24:18;8.90;99.90
42743;DHT22;28397;44.552;-0.848;2023-12-28T08:26:44;8.90;99.90
42743;DHT22;28397;44.552;-0.848;2023-12-28T08:29:10;8.90;99.90
42743;DHT22;28397;44.552;-0.848;2023-12-28T08:31:36;8.90;99.90
42743;DHT22;28397;44.552;-0.848;2023-12-28T08:34:02;8.90;99.90
42743;DHT22;28397;44.552;-0.848;2023-12-28T08:36:27;8.90;99.90
42743;DHT22;28397;44.552;-0.848;2023-12-28T08:38:53;8.90;99.90
42743;DHT22;28397;44.552;-0.848;2023-12-28T08:41:20;8.90;99.90
42743;DHT22;28397;44.552;-0.848;2023-12-28T08:43:46;8.90;99.90
42743;DHT22;28397;44.552;-0.848;2023-12-28T08:46:13;9.00;99.90
42743;DHT22;28397;44.552;-0.848;2023-12-28T08:48:39;8.90;99.90
42743;DHT22;28397;44.552;-0.848;2023-12-28T08:51:04;9.00;99.90
42743;DHT22;28397;44.552;-0.848;2023-12-28T08:53:30;9.00;99.90
42743;DHT22;28397;44.552;-0.848;2023-12-28T08:55:56;9.00;99.90
42743;DHT22;28397;44.552;-0.848;2023-12-28T08:58:21;9.10;99.90
42743;DHT22;28397;44.552;-0.848;2023-12-28T09:00:47;9.10;99.90
42743;DHT22;28397;44.552;-0.848;2023-12-28T09:03:14;9.10;99.90
42743;DHT22;28397;44.552;-0.848;2023-12-28T09:05:39;9.10;99.90
42743;DHT22;28397;44.552;-0.848;2023-12-28T09:08:05;9.10;99.90
42743;DHT22;28397;44.552;-0.848;2023-12-28T09:10:31;9.20;99.90
42743;DHT22;28397;44.552;-0.848;2023-12-28T09:12:57;9.10;99.90
42743;DHT22;28397;44.552;-0.848;2023-12-28T09:15:22;9.10;99.90
42743;DHT22;28397;44.552;-0.848;2023-12-28T09:17:48;9.20;99.90
42743;DHT22;28397;44.552;-0.848;2023-12-28T09:20:15;9.20;99.90
42743;DHT22;28397;44.552;-0.848;2023-12-28T09:22:41;9.20;99.90
42743;DHT22;28397;44.552;-0.848;2023-12-28T09:25:07;9.30;99.90
42743;DHT22;28397;44.552;-0.848;2023-12-28T09:27:33;9.30;99.90
42743;DHT22;28397;44.552;-0.848;2023-12-28T09:29:58;9.40;99.90
42743;DHT22;28397;44.552;-0.848;2023-12-28T09:32:24;9.60;99.90
42743;DHT22;28397;44.552;-0.848;2023-12-28T09:34:50;9.70;99.90
42743;DHT22;28397;44.552;-0.848;2023-12-28T09:37:15;9.80;99.90
42743;DHT22;28397;44.552;-0.848;2023-12-28T09:39:41;9.90;99.90
42743;DHT22;28397;44.552;-0.848;2023-12-28T09:42:30;10.10;99.90
42743;DHT22;28397;44.552;-0.848;2023-12-28T09:44:57;10.10;99.90
42743;DHT22;28397;44.552;-0.848;2023-12-28T09:47:23;10.20;99.90
42743;DHT22;28397;44.552;-0.848;2023-12-28T09:49:49;10.10;99.90
42743;DHT22;28397;44.552;-0.848;2023-12-28T09:52:14;10.00;99.90
42743;DHT22;28397;44.552;-0.848;2023-12-28T09:54:40;9.90;99.90
42743;DHT22;28397;44.552;-0.848;2023-12-28T09:57:06;9.90;99.90
42743;DHT22;28397;44.552;-0.848;2023-12-28T09:59:32;9.80;99.90
42743;DHT22;28397;44.552;-0.848;2023-12-28T10:02:00;9.80;99.90
42743;DHT22;28397;44.552;-0.848;2023-12-28T10:04:28;9.80;99.90
42743;DHT22;28397;44.552;-0.848;2023-12-28T10:06:54;9.70;99.90
42743;DHT22;28397;44.552;-0.848;2023-12-28T10:09:21;9.70;99.90
42743;DHT22;28397;44.552;-0.848;2023-12-28T10:11:47;9.70;99.90
42743;DHT22;28397;44.552;-0.848;2023-12-28T10:14:13;9.70;99.90
42743;DHT22;28397;44.552;-0.848;2023-12-28T10:16:42;9.70;99.90
42743;DHT22;28397;44.552;-0.848;2023-12-28T10:19:08;9.70;99.90
42743;DHT22;28397;44.552;-0.848;2023-12-28T10:21:33;9.70;99.90
42743;DHT22;28397;44.552;-0.848;2023-12-28T10:23:59;9.70;99.90
42743;DHT22;28397;44.552;-0.848;2023-12-28T10:26:25;9.80;99.90
42743;DHT22;28397;44.552;-0.848;2023-12-28T10:28:59;9.80;99.90
42743;DHT22;28397;44.552;-0.848;2023-12-28T10:31:24;9.80;99.90
42743;DHT22;28397;44.552;-0.848;2023-12-28T10:33:50;9.80;99.90
42743;DHT22;28397;44.552;-0.848;2023-12-28T10:36:16;9.90;99.90
42743;DHT22;28397;44.552;-0.848;2023-12-28T10:38:44;9.90;99.90
42743;DHT22;28397;44.552;-0.848;2023-12-28T10:41:12;9.90;99.90
42743;DHT22;28397;44.552;-0.848;2023-12-28T10:44:08;9.90;99.90
42743;DHT22;28397;44.552;-0.848;2023-12-28T10:46:40;9.90;99.90
42743;DHT22;28397;44.552;-0.848;2023-12-28T10:51:36;10.00;99.90
42743;DHT22;28397;44.552;-0.848;2023-12-28T10:54:35;10.00;99.90
42743;DHT22;28397;44.552;-0.848;2023-12-28T10:57:16;10.00;99.90
42743;DHT22;28397;44.552;-0.848;2023-12-28T11:00:00;10.10;99.90
42743;DHT22;28397;44.552;-0.848;2023-12-28T11:02:35;10.10;99.90
42743;DHT22;28397;44.552;-0.848;2023-12-28T11:05:03;10.20;99.90
42743;DHT22;28397;44.552;-0.848;2023-12-28T11:07:30;10.20;99.90
42743;DHT22;28397;44.552;-0.848;2023-12-28T11:10:00;10.20;99.90
42743;DHT22;28397;44.552;-0.848;2023-12-28T11:12:27;10.30;99.90
42743;DHT22;28397;44.552;-0.848;2023-12-28T11:14:54;10.30;99.90
42743;DHT22;28397;44.552;-0.848;2023-12-28T11:17:22;10.30;99.90
42743;DHT22;28397;44.552;-0.848;2023-12-28T11:19:50;10.40;99.90
42743;DHT22;28397;44.552;-0.848;2023-12-28T11:22:20;10.40;99.90
42743;DHT22;28397;44.552;-0.848;2023-12-28T11:24:46;10.50;99.90
42743;DHT22;28397;44.552;-0.848;2023-12-28T11:27:12;10.70;99.90
42743;DHT22;28397;44.552;-0.848;2023-12-28T11:29:38;10.80;99.90
42743;DHT22;28397;44.552;-0.848;2023-12-28T11:32:04;10.90;99.90
42743;DHT22;28397;44.552;-0.848;2023-12-28T11:34:31;11.00;99.90
42743;DHT22;28397;44.552;-0.848;2023-12-28T11:37:04;11.00;99.90
42743;DHT22;28397;44.552;-0.848;2023-12-28T11:39:33;11.10;99.90
42743;DHT22;28397;44.552;-0.848;2023-12-28T11:42:04;11.20;99.90
42743;DHT22;28397;44.552;-0.848;2023-12-28T11:44:37;11.20;99.90
42743;DHT22;28397;44.552;-0.848;2023-12-28T11:47:21;11.20;99.90
42743;DHT22;28397;44.552;-0.848;2023-12-28T11:49:47;11.10;99.90
42743;DHT22;28397;44.552;-0.848;2023-12-28T11:52:28;11.10;99.90
42743;DHT22;28397;44.552;-0.848;2023-12-28T11:54:54;11.10;99.90
42743;DHT22;28397;44.552;-0.848;2023-12-28T11:57:21;11.10;99.90
42743;DHT22;28397;44.552;-0.848;2023-12-28T12:00:00;11.10;99.90
42743;DHT22;28397;44.552;-0.848;2023-12-28T12:02:27;11.10;99.90
42743;DHT22;28397;44.552;-0.848;2023-12-28T12:04:56;11.10;99.90
42743;DHT22;28397;44.552;-0.848;2023-12-28T12:07:27;11.20;99.90
42743;DHT22;28397;44.552;-0.848;2023-12-28T12:09:58;11.20;99.90
42743;DHT22;28397;44.552;-0.848;2023-12-28T12:12:25;11.30;99.90
42743;DHT22;28397;44.552;-0.848;2023-12-28T12:14:51;11.30;99.90
42743;DHT22;28397;44.552;-0.848;2023-12-28T12:17:17;11.40;99.90
42743;DHT22;28397;44.552;-0.848;2023-12-28T12:19:44;11.40;99.90
42743;DHT22;28397;44.552;-0.848;2023-12-28T12:22:13;11.50;99.90
42743;DHT22;28397;44.552;-0.848;2023-12-28T12:24:41;11.50;99.90
42743;DHT22;28397;44.552;-0.848;2023-12-28T12:27:08;11.50;99.90
42743;DHT22;28397;44.552;-0.848;2023-12-28T12:29:34;11.50;99.90
42743;DHT22;28397;44.552;-0.848;2023-12-28T12:32:01;11.60;99.90
42743;DHT22;28397;44.552;-0.848;2023-12-28T12:34:28;11.60;99.90
42743;DHT22;28397;44.552;-0.848;2023-12-28T12:36:54;11.70;99.90
42743;DHT22;28397;44.552;-0.848;2023-12-28T12:39:22;11.80;99.90
42743;DHT22;28397;44.552;-0.848;2023-12-28T12:41:49;11.80;99.90
42743;DHT22;28397;44.552;-0.848;2023-12-28T12:44:14;11.80;99.90
42743;DHT22;28397;44.552;-0.848;2023-12-28T12:46:42;11.80;99.90
42743;DHT22;28397;44.552;-0.848;2023-12-28T12:49:08;11.80;99.90
42743;DHT22;28397;44.552;-0.848;2023-12-28T12:51:33;11.80;99.90
42743;DHT22;28397;44.552;-0.848;2023-12-28T12:54:00;11.80;99.90
42743;DHT22;28397;44.552;-0.848;2023-12-28T12:56:32;11.80;99.90
42743;DHT22;28397;44.552;-0.848;2023-12-28T12:58:58;11.80;99.90
42743;DHT22;28397;44.552;-0.848;2023-12-28T13:01:24;11.80;99.90
42743;DHT22;28397;44.552;-0.848;2023-12-28T13:03:52;11.80;99.90
42743;DHT22;28397;44.552;-0.848;2023-12-28T13:06:18;11.80;99.90
42743;DHT22;28397;44.552;-0.848;2023-12-28T13:08:48;11.80;99.90
42743;DHT22;28397;44.552;-0.848;2023-12-28T13:11:14;11.90;99.90
42743;DHT22;28397;44.552;-0.848;2023-12-28T13:13:41;12.00;99.90
42743;DHT22;28397;44.552;-0.848;2023-12-28T13:16:06;12.10;99.90
42743;DHT22;28397;44.552;-0.848;2023-12-28T13:18:32;12.10;99.90
42743;DHT22;28397;44.552;-0.848;2023-12-28T13:21:00;12.20;99.90
42743;DHT22;28397;44.552;-0.848;2023-12-28T13:23:26;12.30;99.90
42743;DHT22;28397;44.552;-0.848;2023-12-28T13:25:54;12.30;99.90
42743;DHT22;28397;44.552;-0.848;2023-12-28T13:28:19;12.30;99.90
42743;DHT22;28397;44.552;-0.848;2023-12-28T13:30:46;12.40;99.90
42743;DHT22;28397;44.552;-0.848;2023-12-28T13:33:11;12.30;99.90
42743;DHT22;28397;44.552;-0.848;2023-12-28T13:35:37;12.30;99.90
42743;DHT22;28397;44.552;-0.848;2023-12-28T13:38:03;12.10;99.90
42743;DHT22;28397;44.552;-0.848;2023-12-28T13:40:28;12.10;99.90
42743;DHT22;28397;44.552;-0.848;2023-12-28T13:42:56;12.00;99.90
42743;DHT22;28397;44.552;-0.848;2023-12-28T13:45:22;11.90;99.90
42743;DHT22;28397;44.552;-0.848;2023-12-28T13:47:47;11.90;99.90
42743;DHT22;28397;44.552;-0.848;2023-12-28T13:50:13;11.80;99.90
42743;DHT22;28397;44.552;-0.848;2023-12-28T13:52:38;11.80;99.90
42743;DHT22;28397;44.552;-0.848;2023-12-28T13:55:05;11.80;99.90
42743;DHT22;28397;44.552;-0.848;2023-12-28T13:57:30;11.80;99.90
42743;DHT22;28397;44.552;-0.848;2023-12-28T13:59:56;11.80;99.90
42743;DHT22;28397;44.552;-0.848;2023-12-28T14:02:25;11.90;99.90
42743;DHT22;28397;44.552;-0.848;2023-12-28T14:04:51;11.90;99.90
42743;DHT22;28397;44.552;-0.848;2023-12-28T14:07:17;11.80;99.90
42743;DHT22;28397;44.552;-0.848;2023-12-28T14:09:42;11.80;99.90
42743;DHT22;28397;44.552;-0.848;2023-12-28T14:12:08;11.80;99.90
42743;DHT22;28397;44.552;-0.848;2023-12-28T14:14:34;11.80;99.90
42743;DHT22;28397;44.552;-0.848;2023-12-28T14:16:59;11.80;99.90
42743;DHT22;28397;44.552;-0.848;2023-12-28T14:19:25;11.80;99.90
42743;DHT22;28397;44.552;-0.848;2023-12-28T14:21:51;11.80;99.90
42743;DHT22;28397;44.552;-0.848;2023-12-28T14:24:17;11.80;99.90
42743;DHT22;28397;44.552;-0.848;2023-12-28T14:26:44;11.80;99.90
42743;DHT22;28397;44.552;-0.848;2023-12-28T14:29:11;11.80;99.90
42743;DHT22;28397;44.552;-0.848;2023-12-28T14:31:36;11.90;99.90
42743;DHT22;28397;44.552;-0.848;2023-12-28T14:34:03;11.90;99.90
42743;DHT22;28397;44.552;-0.848;2023-12-28T14:36:36;11.90;99.90
42743;DHT22;28397;44.552;-0.848;2023-12-28T14:39:04;11.90;99.90
42743;DHT22;28397;44.552;-0.848;2023-12-28T14:41:31;11.90;99.90
42743;DHT22;28397;44.552;-0.848;2023-12-28T14:43:57;11.90;99.90
42743;DHT22;28397;44.552;-0.848;2023-12-28T14:46:24;11.90;99.90
42743;DHT22;28397;44.552;-0.848;2023-12-28T14:48:50;11.90;99.90
42743;DHT22;28397;44.552;-0.848;2023-12-28T14:51:16;11.90;99.90
42743;DHT22;28397;44.552;-0.848;2023-12-28T14:53:41;11.80;99.90
42743;DHT22;28397;44.552;-0.848;2023-12-28T14:56:07;11.80;99.90
42743;DHT22;28397;44.552;-0.848;2023-12-28T14:58:33;11.80;99.90
42743;DHT22;28397;44.552;-0.848;2023-12-28T15:00:58;12.00;99.90
42743;DHT22;28397;44.552;-0.848;2023-12-28T15:03:24;12.00;99.90
42743;DHT22;28397;44.552;-0.848;2023-12-28T15:05:51;12.10;99.90
42743;DHT22;28397;44.552;-0.848;2023-12-28T15:08:16;12.20;99.90
42743;DHT22;28397;44.552;-0.848;2023-12-28T15:10:42;12.30;99.90
42743;DHT22;28397;44.552;-0.848;2023-12-28T15:13:08;12.40;99.90
42743;DHT22;28397;44.552;-0.848;2023-12-28T15:15:34;12.40;99.90
42743;DHT22;28397;44.552;-0.848;2023-12-28T15:18:00;12.40;99.90
42743;DHT22;28397;44.552;-0.848;2023-12-28T15:20:26;12.40;99.90
42743;DHT22;28397;44.552;-0.848;2023-12-28T15:22:52;12.30;99.90
42743;DHT22;28397;44.552;-0.848;2023-12-28T15:25:18;12.20;99.90
42743;DHT22;28397;44.552;-0.848;2023-12-28T15:27:44;12.10;99.90